sensor_id;sensor_type;location;lat;lon;timestamp;P1;durP1;ratioP1;P2;durP2;ratioP2
40449;SDS011;41787;53.570;10.032;2022-08-01T00:01:05;15.98;;;13.82;;
40449;SDS011;41787;53.570;10.032;2022-08-01T00:03:31;13.48;;;12.02;;
40449;SDS011;41787;53.570;10.032;2022-08-01T00:05:57;18.48;;;12.52;;
40449;SDS011;41787;53.570;10.032;2022-08-01T00:08:23;15.68;;;13.45;;
40449;SDS011;41787;53.570;10.032;2022-08-01T00:10:49;16.75;;;13.57;;
40449;SDS011;41787;53.570;10.032;2022-08-01T00:13:15;16.67;;;12.85;;
40449;SDS011;41787;53.570;10.032;2022-08-01T00:15:41;17.15;;;12.00;;
40449;SDS011;41787;53.570;10.032;2022-08-01T00:18:07;14.45;;;12.20;;
40449;SDS011;41787;53.570;10.032;2022-08-01T00:20:33;15.90;;;11.77;;
40449;SDS011;41787;53.570;10.032;2022-08-01T00:22:59;14.98;;;12.02;;
40449;SDS011;41787;53.570;10.032;2022-08-01T00:25:27;15.02;;;11.75;;
40449;SDS011;41787;53.570;10.032;2022-08-01T00:27:53;13.73;;;11.82;;
40449;SDS011;41787;53.570;10.032;2022-08-01T00:30:19;13.63;;;11.73;;
40449;SDS011;41787;53.570;10.032;2022-08-01T00:32:45;17.95;;;12.52;;
40449;SDS011;41787;53.570;10.032;2022-08-01T00:35:11;13.50;;;10.75;;
40449;SDS011;41787;53.570;10.032;2022-08-01T00:37:38;12.43;;;11.13;;
40449;SDS011;41787;53.570;10.032;2022-08-01T00:40:04;14.60;;;11.98;;
40449;SDS011;41787;53.570;10.032;2022-08-01T00:42:30;15.52;;;11.82;;
40449;SDS011;41787;53.570;10.032;2022-08-01T00:44:56;17.67;;;12.93;;
40449;SDS011;41787;53.570;10.032;2022-08-01T00:47:22;14.32;;;10.95;;
40449;SDS011;41787;53.570;10.032;2022-08-01T00:49:48;15.63;;;11.90;;
40449;SDS011;41787;53.570;10.032;2022-08-01T00:52:14;15.35;;;13.18;;
40449;SDS011;41787;53.570;10.032;2022-08-01T00:54:40;14.35;;;12.48;;
40449;SDS011;41787;53.570;10.032;2022-08-01T00:57:06;17.33;;;11.90;;
40449;SDS011;41787;53.570;10.032;2022-08-01T00:59:32;18.63;;;12.00;;
40449;SDS011;41787;53.570;10.032;2022-08-01T01:01:58;15.30;;;11.10;;
40449;SDS011;41787;53.570;10.032;2022-08-01T01:04:24;13.18;;;10.32;;
40449;SDS011;41787;53.570;10.032;2022-08-01T01:14:56;11.35;;;9.65;;
40449;SDS011;41787;53.570;10.032;2022-08-01T01:17:34;10.10;;;8.68;;
40449;SDS011;41787;53.570;10.032;2022-08-01T01:20:01;12.95;;;8.80;;
40449;SDS011;41787;53.570;10.032;2022-08-01T01:27:45;10.43;;;8.38;;
40449;SDS011;41787;53.570;10.032;2022-08-01T01:30:14;11.43;;;8.85;;
40449;SDS011;41787;53.570;10.032;2022-08-01T01:32:44;10.55;;;8.48;;
40449;SDS011;41787;53.570;10.032;2022-08-01T01:35:19;11.20;;;9.68;;
40449;SDS011;41787;53.570;10.032;2022-08-01T01:37:46;15.25;;;9.27;;
40449;SDS011;41787;53.570;10.032;2022-08-01T01:40:14;13.30;;;9.75;;
40449;SDS011;41787;53.570;10.032;2022-08-01T01:42:41;15.95;;;11.68;;
40449;SDS011;41787;53.570;10.032;2022-08-01T01:45:07;15.50;;;11.05;;
40449;SDS011;41787;53.570;10.032;2022-08-01T01:47:34;16.95;;;11.60;;
40449;SDS011;41787;53.570;10.032;2022-08-01T01:50:02;16.33;;;11.50;;
40449;SDS011;41787;53.570;10.032;2022-08-01T01:52:28;18.17;;;11.48;;
40449;SDS011;41787;53.570;10.032;2022-08-01T01:54:55;16.88;;;12.05;;
40449;SDS011;41787;53.570;10.032;2022-08-01T01:57:21;21.30;;;12.32;;
40449;SDS011;41787;53.570;10.032;2022-08-01T01:59:48;17.42;;;11.68;;
40449;SDS011;41787;53.570;10.032;2022-08-01T02:02:15;17.73;;;12.73;;
40449;SDS011;41787;53.570;10.032;2022-08-01T02:04:42;19.88;;;11.73;;
40449;SDS011;41787;53.570;10.032;2022-08-01T02:07:09;18.58;;;11.85;;
40449;SDS011;41787;53.570;10.032;2022-08-01T02:09:35;17.50;;;12.77;;
40449;SDS011;41787;53.570;10.032;2022-08-01T02:12:03;19.42;;;13.38;;
40449;SDS011;41787;53.570;10.032;2022-08-01T02:14:30;23.77;;;12.73;;
40449;SDS011;41787;53.570;10.032;2022-08-01T02:16:58;19.13;;;11.85;;
40449;SDS011;41787;53.570;10.032;2022-08-01T02:19:25;15.52;;;11.18;;
40449;SDS011;41787;53.570;10.032;2022-08-01T02:21:53;16.33;;;11.77;;
40449;SDS011;41787;53.570;10.032;2022-08-01T02:24:25;20.25;;;11.38;;
40449;SDS011;41787;53.570;10.032;2022-08-01T02:26:53;17.33;;;11.73;;
40449;SDS011;41787;53.570;10.032;2022-08-01T02:29:21;20.13;;;11.27;;
40449;SDS011;41787;53.570;10.032;2022-08-01T02:31:48;16.02;;;10.95;;
40449;SDS011;41787;53.570;10.032;2022-08-01T02:34:17;16.60;;;10.18;;
40449;SDS011;41787;53.570;10.032;2022-08-01T02:36:44;15.15;;;8.90;;
40449;SDS011;41787;53.570;10.032;2022-08-01T02:39:12;14.57;;;9.63;;
40449;SDS011;41787;53.570;10.032;2022-08-01T02:41:42;13.77;;;9.68;;
40449;SDS011;41787;53.570;10.032;2022-08-01T02:44:09;13.32;;;9.43;;
40449;SDS011;41787;53.570;10.032;2022-08-01T02:46:37;13.80;;;10.65;;
40449;SDS011;41787;53.570;10.032;2022-08-01T02:49:04;16.20;;;10.23;;
40449;SDS011;41787;53.570;10.032;2022-08-01T02:51:32;15.65;;;9.52;;
40449;SDS011;41787;53.570;10.032;2022-08-01T02:53:59;16.45;;;9.68;;
40449;SDS011;41787;53.570;10.032;2022-08-01T02:56:26;14.38;;;9.98;;
40449;SDS011;41787;53.570;10.032;2022-08-01T02:58:59;12.60;;;9.10;;
40449;SDS011;41787;53.570;10.032;2022-08-01T03:01:26;20.60;;;11.02;;
40449;SDS011;41787;53.570;10.032;2022-08-01T03:03:52;13.30;;;8.98;;
40449;SDS011;41787;53.570;10.032;2022-08-01T03:06:18;13.90;;;9.50;;
40449;SDS011;41787;53.570;10.032;2022-08-01T03:08:44;12.02;;;9.55;;
40449;SDS011;41787;53.570;10.032;2022-08-01T03:11:10;13.10;;;8.48;;
40449;SDS011;41787;53.570;10.032;2022-08-01T03:13:38;14.50;;;9.52;;
40449;SDS011;41787;53.570;10.032;2022-08-01T03:16:05;12.70;;;8.60;;
40449;SDS011;41787;53.570;10.032;2022-08-01T03:18:32;15.70;;;8.68;;
40449;SDS011;41787;53.570;10.032;2022-08-01T03:20:58;16.35;;;8.32;;
40449;SDS011;41787;53.570;10.032;2022-08-01T03:23:25;11.07;;;8.27;;
40449;SDS011;41787;53.570;10.032;2022-08-01T03:25:52;10.60;;;8.00;;
40449;SDS011;41787;53.570;10.032;2022-08-01T03:28:18;9.05;;;7.78;;
40449;SDS011;41787;53.570;10.032;2022-08-01T03:30:46;11.57;;;8.38;;
40449;SDS011;41787;53.570;10.032;2022-08-01T03:33:13;10.40;;;6.63;;
40449;SDS011;41787;53.570;10.032;2022-08-01T03:35:39;9.45;;;7.50;;
40449;SDS011;41787;53.570;10.032;2022-08-01T03:38:08;9.65;;;7.63;;
40449;SDS011;41787;53.570;10.032;2022-08-01T03:40:42;16.70;;;7.57;;
40449;SDS011;41787;53.570;10.032;2022-08-01T03:43:11;12.70;;;7.00;;
40449;SDS011;41787;53.570;10.032;2022-08-01T03:45:41;8.00;;;6.22;;
40449;SDS011;41787;53.570;10.032;2022-08-01T03:48:12;10.90;;;7.13;;
40449;SDS011;41787;53.570;10.032;2022-08-01T03:50:41;8.73;;;7.25;;
40449;SDS011;41787;53.570;10.032;2022-08-01T03:53:08;12.30;;;7.15;;
40449;SDS011;41787;53.570;10.032;2022-08-01T03:55:35;14.35;;;8.05;;
40449;SDS011;41787;53.570;10.032;2022-08-01T03:58:03;10.95;;;7.63;;
40449;SDS011;41787;53.570;10.032;2022-08-01T04:00:30;12.18;;;7.13;;
40449;SDS011;41787;53.570;10.032;2022-08-01T04:02:56;17.33;;;7.28;;
40449;SDS011;41787;53.570;10.032;2022-08-01T04:05:22;13.05;;;7.60;;
40449;SDS011;41787;53.570;10.032;2022-08-01T04:07:49;13.10;;;7.47;;
40449;SDS011;41787;53.570;10.032;2022-08-01T04:10:24;14.90;;;6.88;;
40449;SDS011;41787;53.570;10.032;2022-08-01T04:12:50;11.10;;;6.65;;
40449;SDS011;41787;53.570;10.032;2022-08-01T04:15:16;11.15;;;6.10;;
40449;SDS011;41787;53.570;10.032;2022-08-01T04:17:42;7.55;;;5.85;;
40449;SDS011;41787;53.570;10.032;2022-08-01T04:20:08;7.88;;;5.63;;
40449;SDS011;41787;53.570;10.032;2022-08-01T04:22:34;7.05;;;5.60;;
40449;SDS011;41787;53.570;10.032;2022-08-01T04:25:01;8.55;;;5.55;;
40449;SDS011;41787;53.570;10.032;2022-08-01T04:27:29;7.75;;;5.25;;
40449;SDS011;41787;53.570;10.032;2022-08-01T04:29:56;8.18;;;5.47;;
40449;SDS011;41787;53.570;10.032;2022-08-01T04:32:23;7.30;;;5.75;;
40449;SDS011;41787;53.570;10.032;2022-08-01T04:34:51;8.23;;;5.75;;
40449;SDS011;41787;53.570;10.032;2022-08-01T04:37:20;8.57;;;6.75;;
40449;SDS011;41787;53.570;10.032;2022-08-01T04:39:46;7.30;;;5.45;;
40449;SDS011;41787;53.570;10.032;2022-08-01T04:42:13;8.52;;;5.10;;
40449;SDS011;41787;53.570;10.032;2022-08-01T04:44:40;13.85;;;5.45;;
40449;SDS011;41787;53.570;10.032;2022-08-01T04:47:06;8.13;;;4.85;;
40449;SDS011;41787;53.570;10.032;2022-08-01T04:49:33;7.38;;;4.28;;
40449;SDS011;41787;53.570;10.032;2022-08-01T04:51:59;7.38;;;4.40;;
40449;SDS011;41787;53.570;10.032;2022-08-01T04:54:29;9.45;;;4.57;;
40449;SDS011;41787;53.570;10.032;2022-08-01T04:56:57;6.38;;;4.05;;
40449;SDS011;41787;53.570;10.032;2022-08-01T04:59:26;6.88;;;3.30;;
40449;SDS011;41787;53.570;10.032;2022-08-01T05:02:08;4.95;;;3.63;;
40449;SDS011;41787;53.570;10.032;2022-08-01T05:04:35;6.38;;;3.28;;
40449;SDS011;41787;53.570;10.032;2022-08-01T05:07:01;5.80;;;2.90;;
40449;SDS011;41787;53.570;10.032;2022-08-01T05:09:27;3.78;;;1.90;;
40449;SDS011;41787;53.570;10.032;2022-08-01T05:11:53;5.95;;;2.92;;
40449;SDS011;41787;53.570;10.032;2022-08-01T05:14:19;4.75;;;1.80;;
40449;SDS011;41787;53.570;10.032;2022-08-01T05:16:46;4.20;;;2.30;;
40449;SDS011;41787;53.570;10.032;2022-08-01T05:19:11;2.72;;;2.30;;
40449;SDS011;41787;53.570;10.032;2022-08-01T05:21:37;5.13;;;2.58;;
40449;SDS011;41787;53.570;10.032;2022-08-01T05:24:04;5.10;;;2.22;;
40449;SDS011;41787;53.570;10.032;2022-08-01T05:26:30;5.07;;;1.95;;
40449;SDS011;41787;53.570;10.032;2022-08-01T05:28:56;3.72;;;1.85;;
40449;SDS011;41787;53.570;10.032;2022-08-01T05:31:22;3.22;;;2.05;;
40449;SDS011;41787;53.570;10.032;2022-08-01T05:33:48;3.67;;;1.80;;
40449;SDS011;41787;53.570;10.032;2022-08-01T05:36:14;3.38;;;1.73;;
40449;SDS011;41787;53.570;10.032;2022-08-01T05:38:40;6.00;;;2.17;;
40449;SDS011;41787;53.570;10.032;2022-08-01T05:41:06;3.97;;;2.00;;
40449;SDS011;41787;53.570;10.032;2022-08-01T05:43:31;4.68;;;1.98;;
40449;SDS011;41787;53.570;10.032;2022-08-01T05:45:57;4.95;;;2.03;;
40449;SDS011;41787;53.570;10.032;2022-08-01T05:48:23;3.92;;;2.10;;
40449;SDS011;41787;53.570;10.032;2022-08-01T05:50:49;6.72;;;2.13;;
40449;SDS011;41787;53.570;10.032;2022-08-01T05:53:15;3.47;;;2.03;;
40449;SDS011;41787;53.570;10.032;2022-08-01T05:55:41;4.97;;;2.35;;
40449;SDS011;41787;53.570;10.032;2022-08-01T05:58:07;4.22;;;2.15;;
40449;SDS011;41787;53.570;10.032;2022-08-01T06:00:33;6.35;;;2.72;;
40449;SDS011;41787;53.570;10.032;2022-08-01T06:02:59;7.20;;;3.30;;
40449;SDS011;41787;53.570;10.032;2022-08-01T06:05:25;7.20;;;3.92;;
40449;SDS011;41787;53.570;10.032;2022-08-01T06:07:51;6.95;;;3.72;;
40449;SDS011;41787;53.570;10.032;2022-08-01T06:10:17;4.55;;;3.05;;
40449;SDS011;41787;53.570;10.032;2022-08-01T06:12:43;6.53;;;3.17;;
40449;SDS011;41787;53.570;10.032;2022-08-01T06:15:09;8.57;;;2.97;;
40449;SDS011;41787;53.570;10.032;2022-08-01T06:17:35;8.25;;;3.47;;
40449;SDS011;41787;53.570;10.032;2022-08-01T06:20:01;5.95;;;3.10;;
40449;SDS011;41787;53.570;10.032;2022-08-01T06:22:27;9.13;;;3.90;;
40449;SDS011;41787;53.570;10.032;2022-08-01T06:24:53;10.90;;;4.68;;
40449;SDS011;41787;53.570;10.032;2022-08-01T06:27:19;11.40;;;3.53;;
40449;SDS011;41787;53.570;10.032;2022-08-01T06:29:45;6.43;;;3.38;;
40449;SDS011;41787;53.570;10.032;2022-08-01T06:32:11;6.85;;;2.55;;
40449;SDS011;41787;53.570;10.032;2022-08-01T06:34:37;5.70;;;3.38;;
40449;SDS011;41787;53.570;10.032;2022-08-01T06:37:03;8.27;;;3.60;;
40449;SDS011;41787;53.570;10.032;2022-08-01T06:39:29;7.75;;;3.90;;
40449;SDS011;41787;53.570;10.032;2022-08-01T06:41:55;9.88;;;4.00;;
40449;SDS011;41787;53.570;10.032;2022-08-01T06:44:21;8.50;;;4.80;;
40449;SDS011;41787;53.570;10.032;2022-08-01T06:46:47;9.82;;;5.97;;
40449;SDS011;41787;53.570;10.032;2022-08-01T06:49:13;11.43;;;5.53;;
40449;SDS011;41787;53.570;10.032;2022-08-01T06:51:39;10.57;;;5.03;;
40449;SDS011;41787;53.570;10.032;2022-08-01T06:54:05;10.15;;;5.72;;
40449;SDS011;41787;53.570;10.032;2022-08-01T06:56:31;8.65;;;5.68;;
40449;SDS011;41787;53.570;10.032;2022-08-01T06:58:57;6.43;;;4.43;;
40449;SDS011;41787;53.570;10.032;2022-08-01T07:01:26;11.88;;;6.13;;
40449;SDS011;41787;53.570;10.032;2022-08-01T07:03:52;13.57;;;5.43;;
40449;SDS011;41787;53.570;10.032;2022-08-01T07:06:18;14.20;;;5.18;;
40449;SDS011;41787;53.570;10.032;2022-08-01T07:08:44;11.18;;;5.45;;
40449;SDS011;41787;53.570;10.032;2022-08-01T07:11:10;14.48;;;6.10;;
40449;SDS011;41787;53.570;10.032;2022-08-01T07:13:36;10.20;;;3.45;;
40449;SDS011;41787;53.570;10.032;2022-08-01T07:16:02;6.00;;;2.70;;
40449;SDS011;41787;53.570;10.032;2022-08-01T07:18:28;7.45;;;2.97;;
40449;SDS011;41787;53.570;10.032;2022-08-01T07:20:54;10.48;;;5.00;;
40449;SDS011;41787;53.570;10.032;2022-08-01T07:23:20;13.30;;;5.35;;
40449;SDS011;41787;53.570;10.032;2022-08-01T07:25:46;5.47;;;2.78;;
40449;SDS011;41787;53.570;10.032;2022-08-01T07:28:13;14.18;;;5.75;;
40449;SDS011;41787;53.570;10.032;2022-08-01T07:30:39;13.63;;;5.47;;
40449;SDS011;41787;53.570;10.032;2022-08-01T07:33:07;8.65;;;3.55;;
40449;SDS011;41787;53.570;10.032;2022-08-01T07:35:33;19.08;;;6.45;;
40449;SDS011;41787;53.570;10.032;2022-08-01T07:38:03;17.60;;;6.32;;
40449;SDS011;41787;53.570;10.032;2022-08-01T07:40:29;14.73;;;5.13;;
40449;SDS011;41787;53.570;10.032;2022-08-01T07:42:54;15.95;;;6.75;;
40449;SDS011;41787;53.570;10.032;2022-08-01T07:45:20;10.35;;;5.38;;
40449;SDS011;41787;53.570;10.032;2022-08-01T07:47:47;18.77;;;6.43;;
40449;SDS011;41787;53.570;10.032;2022-08-01T07:50:14;10.05;;;5.65;;
40449;SDS011;41787;53.570;10.032;2022-08-01T07:52:41;17.60;;;5.82;;
40449;SDS011;41787;53.570;10.032;2022-08-01T07:55:07;16.35;;;5.13;;
40449;SDS011;41787;53.570;10.032;2022-08-01T07:57:34;13.80;;;3.97;;
40449;SDS011;41787;53.570;10.032;2022-08-01T08:00:00;14.77;;;4.25;;
40449;SDS011;41787;53.570;10.032;2022-08-01T08:02:26;12.93;;;3.65;;
40449;SDS011;41787;53.570;10.032;2022-08-01T08:04:52;19.75;;;3.85;;
40449;SDS011;41787;53.570;10.032;2022-08-01T08:07:18;17.92;;;4.18;;
40449;SDS011;41787;53.570;10.032;2022-08-01T08:09:44;13.10;;;4.40;;
40449;SDS011;41787;53.570;10.032;2022-08-01T08:12:10;10.57;;;2.72;;
40449;SDS011;41787;53.570;10.032;2022-08-01T08:14:37;10.15;;;2.85;;
40449;SDS011;41787;53.570;10.032;2022-08-01T08:17:03;14.75;;;2.90;;
40449;SDS011;41787;53.570;10.032;2022-08-01T08:19:29;9.48;;;1.98;;
40449;SDS011;41787;53.570;10.032;2022-08-01T08:21:58;10.48;;;2.08;;
40449;SDS011;41787;53.570;10.032;2022-08-01T08:24:24;10.88;;;2.00;;
40449;SDS011;41787;53.570;10.032;2022-08-01T08:26:51;6.43;;;1.40;;
40449;SDS011;41787;53.570;10.032;2022-08-01T08:31:46;13.40;;;2.47;;
40449;SDS011;41787;53.570;10.032;2022-08-01T08:34:12;13.57;;;2.25;;
40449;SDS011;41787;53.570;10.032;2022-08-01T08:36:38;11.10;;;2.63;;
40449;SDS011;41787;53.570;10.032;2022-08-01T08:39:04;7.80;;;1.33;;
40449;SDS011;41787;53.570;10.032;2022-08-01T08:41:33;6.57;;;1.65;;
40449;SDS011;41787;53.570;10.032;2022-08-01T08:44:00;5.83;;;1.30;;
40449;SDS011;41787;53.570;10.032;2022-08-01T08:46:26;8.02;;;1.75;;
40449;SDS011;41787;53.570;10.032;2022-08-01T08:48:53;10.88;;;2.53;;
40449;SDS011;41787;53.570;10.032;2022-08-01T08:51:19;9.85;;;2.38;;
40449;SDS011;41787;53.570;10.032;2022-08-01T08:53:45;3.50;;;1.02;;
40449;SDS011;41787;53.570;10.032;2022-08-01T08:56:12;6.90;;;1.60;;
40449;SDS011;41787;53.570;10.032;2022-08-01T08:58:40;4.93;;;1.40;;
40449;SDS011;41787;53.570;10.032;2022-08-01T09:01:07;11.68;;;2.17;;
40449;SDS011;41787;53.570;10.032;2022-08-01T09:03:34;5.93;;;1.55;;
40449;SDS011;41787;53.570;10.032;2022-08-01T09:06:00;8.27;;;1.70;;
40449;SDS011;41787;53.570;10.032;2022-08-01T09:08:26;8.32;;;1.80;;
40449;SDS011;41787;53.570;10.032;2022-08-01T09:10:52;14.05;;;2.50;;
40449;SDS011;41787;53.570;10.032;2022-08-01T09:13:18;9.18;;;2.38;;
40449;SDS011;41787;53.570;10.032;2022-08-01T09:15:45;10.70;;;1.90;;
40449;SDS011;41787;53.570;10.032;2022-08-01T09:21:06;10.20;;;2.08;;
40449;SDS011;41787;53.570;10.032;2022-08-01T09:26:04;6.90;;;1.65;;
40449;SDS011;41787;53.570;10.032;2022-08-01T09:28:30;5.40;;;0.82;;
40449;SDS011;41787;53.570;10.032;2022-08-01T09:30:57;9.30;;;1.73;;
40449;SDS011;41787;53.570;10.032;2022-08-01T09:33:23;13.68;;;2.13;;
40449;SDS011;41787;53.570;10.032;2022-08-01T09:35:55;5.72;;;1.40;;
40449;SDS011;41787;53.570;10.032;2022-08-01T09:38:23;9.73;;;1.70;;
40449;SDS011;41787;53.570;10.032;2022-08-01T09:40:54;7.87;;;1.60;;
40449;SDS011;41787;53.570;10.032;2022-08-01T09:43:22;9.45;;;1.55;;
40449;SDS011;41787;53.570;10.032;2022-08-01T09:45:48;9.35;;;1.80;;
40449;SDS011;41787;53.570;10.032;2022-08-01T09:48:15;7.38;;;1.30;;
40449;SDS011;41787;53.570;10.032;2022-08-01T09:50:42;12.48;;;2.30;;
40449;SDS011;41787;53.570;10.032;2022-08-01T09:53:11;10.52;;;2.33;;
40449;SDS011;41787;53.570;10.032;2022-08-01T09:55:38;10.18;;;1.55;;
40449;SDS011;41787;53.570;10.032;2022-08-01T09:58:04;8.75;;;1.52;;
40449;SDS011;41787;53.570;10.032;2022-08-01T10:00:30;8.75;;;1.95;;
40449;SDS011;41787;53.570;10.032;2022-08-01T10:02:57;9.48;;;2.33;;
40449;SDS011;41787;53.570;10.032;2022-08-01T10:05:33;13.40;;;2.70;;
40449;SDS011;41787;53.570;10.032;2022-08-01T10:08:01;14.02;;;2.25;;
40449;SDS011;41787;53.570;10.032;2022-08-01T10:10:28;11.75;;;2.08;;
40449;SDS011;41787;53.570;10.032;2022-08-01T10:12:54;6.53;;;1.85;;
40449;SDS011;41787;53.570;10.032;2022-08-01T10:15:21;6.45;;;1.88;;
40449;SDS011;41787;53.570;10.032;2022-08-01T10:17:54;10.35;;;2.28;;
40449;SDS011;41787;53.570;10.032;2022-08-01T10:20:21;11.13;;;2.22;;
40449;SDS011;41787;53.570;10.032;2022-08-01T10:22:48;15.80;;;2.40;;
40449;SDS011;41787;53.570;10.032;2022-08-01T10:25:15;12.52;;;2.58;;
40449;SDS011;41787;53.570;10.032;2022-08-01T10:27:43;14.70;;;1.50;;
40449;SDS011;41787;53.570;10.032;2022-08-01T10:30:12;13.00;;;2.20;;
40449;SDS011;41787;53.570;10.032;2022-08-01T10:32:38;13.43;;;2.42;;
40449;SDS011;41787;53.570;10.032;2022-08-01T10:35:07;11.35;;;2.20;;
40449;SDS011;41787;53.570;10.032;2022-08-01T10:37:33;11.98;;;2.60;;
40449;SDS011;41787;53.570;10.032;2022-08-01T10:40:00;11.57;;;2.55;;
40449;SDS011;41787;53.570;10.032;2022-08-01T10:42:26;11.18;;;1.73;;
40449;SDS011;41787;53.570;10.032;2022-08-01T10:44:52;12.15;;;2.10;;
40449;SDS011;41787;53.570;10.032;2022-08-01T10:47:31;11.13;;;2.10;;
40449;SDS011;41787;53.570;10.032;2022-08-01T10:50:17;14.15;;;2.50;;
40449;SDS011;41787;53.570;10.032;2022-08-01T10:53:03;10.52;;;1.65;;
40449;SDS011;41787;53.570;10.032;2022-08-01T10:55:29;7.60;;;1.73;;
40449;SDS011;41787;53.570;10.032;2022-08-01T10:58:10;13.70;;;1.70;;
40449;SDS011;41787;53.570;10.032;2022-08-01T11:00:36;11.15;;;1.77;;
40449;SDS011;41787;53.570;10.032;2022-08-01T11:03:02;8.43;;;2.47;;
40449;SDS011;41787;53.570;10.032;2022-08-01T11:05:30;7.68;;;1.58;;
40449;SDS011;41787;53.570;10.032;2022-08-01T11:07:57;6.82;;;1.20;;
40449;SDS011;41787;53.570;10.032;2022-08-01T11:10:25;5.35;;;1.42;;
40449;SDS011;41787;53.570;10.032;2022-08-01T11:12:53;6.65;;;1.30;;
40449;SDS011;41787;53.570;10.032;2022-08-01T11:15:20;6.40;;;1.65;;
40449;SDS011;41787;53.570;10.032;2022-08-01T11:17:55;5.60;;;1.55;;
40449;SDS011;41787;53.570;10.032;2022-08-01T11:20:25;11.07;;;1.60;;
40449;SDS011;41787;53.570;10.032;2022-08-01T11:25:27;8.85;;;2.20;;
40449;SDS011;41787;53.570;10.032;2022-08-01T11:30:37;7.28;;;1.50;;
40449;SDS011;41787;53.570;10.032;2022-08-01T11:33:03;5.45;;;1.67;;
40449;SDS011;41787;53.570;10.032;2022-08-01T11:35:31;3.80;;;0.80;;
40449;SDS011;41787;53.570;10.032;2022-08-01T11:37:57;9.10;;;1.85;;
40449;SDS011;41787;53.570;10.032;2022-08-01T11:40:43;10.95;;;1.33;;
40449;SDS011;41787;53.570;10.032;2022-08-01T11:43:18;9.38;;;1.33;;
40449;SDS011;41787;53.570;10.032;2022-08-01T11:45:50;6.45;;;1.40;;
40449;SDS011;41787;53.570;10.032;2022-08-01T11:48:22;3.03;;;0.70;;
40449;SDS011;41787;53.570;10.032;2022-08-01T11:50:49;5.60;;;0.82;;
40449;SDS011;41787;53.570;10.032;2022-08-01T11:53:15;10.85;;;2.05;;
40449;SDS011;41787;53.570;10.032;2022-08-01T11:55:46;8.77;;;1.70;;
40449;SDS011;41787;53.570;10.032;2022-08-01T11:58:16;7.93;;;1.63;;
40449;SDS011;41787;53.570;10.032;2022-08-01T12:00:49;9.82;;;2.15;;
40449;SDS011;41787;53.570;10.032;2022-08-01T12:03:15;13.13;;;2.13;;
40449;SDS011;41787;53.570;10.032;2022-08-01T12:05:43;10.23;;;1.35;;
40449;SDS011;41787;53.570;10.032;2022-08-01T12:08:09;7.65;;;1.23;;
40449;SDS011;41787;53.570;10.032;2022-08-01T12:10:36;7.95;;;1.48;;
40449;SDS011;41787;53.570;10.032;2022-08-01T12:13:05;10.57;;;1.55;;
40449;SDS011;41787;53.570;10.032;2022-08-01T12:15:35;2.85;;;0.80;;
40449;SDS011;41787;53.570;10.032;2022-08-01T12:18:02;8.43;;;1.50;;
40449;SDS011;41787;53.570;10.032;2022-08-01T12:20:33;6.85;;;1.45;;
40449;SDS011;41787;53.570;10.032;2022-08-01T12:23:02;7.53;;;1.40;;
40449;SDS011;41787;53.570;10.032;2022-08-01T12:25:28;6.20;;;1.58;;
40449;SDS011;41787;53.570;10.032;2022-08-01T12:27:54;9.80;;;1.30;;
40449;SDS011;41787;53.570;10.032;2022-08-01T12:30:21;4.72;;;1.05;;
40449;SDS011;41787;53.570;10.032;2022-08-01T12:32:49;7.63;;;1.27;;
40449;SDS011;41787;53.570;10.032;2022-08-01T12:35:18;5.50;;;1.02;;
40449;SDS011;41787;53.570;10.032;2022-08-01T12:37:48;8.15;;;1.15;;
40449;SDS011;41787;53.570;10.032;2022-08-01T12:40:20;10.32;;;1.48;;
40449;SDS011;41787;53.570;10.032;2022-08-01T12:42:54;7.07;;;1.02;;
40449;SDS011;41787;53.570;10.032;2022-08-01T12:45:21;5.40;;;0.90;;
40449;SDS011;41787;53.570;10.032;2022-08-01T12:47:49;8.40;;;1.55;;
40449;SDS011;41787;53.570;10.032;2022-08-01T12:50:18;4.45;;;0.82;;
40449;SDS011;41787;53.570;10.032;2022-08-01T12:52:44;8.57;;;1.52;;
40449;SDS011;41787;53.570;10.032;2022-08-01T12:55:12;6.65;;;1.17;;
40449;SDS011;41787;53.570;10.032;2022-08-01T12:57:40;10.52;;;1.67;;
40449;SDS011;41787;53.570;10.032;2022-08-01T13:02:33;4.40;;;0.88;;
40449;SDS011;41787;53.570;10.032;2022-08-01T13:04:59;8.00;;;1.45;;
40449;SDS011;41787;53.570;10.032;2022-08-01T13:07:39;9.80;;;1.15;;
40449;SDS011;41787;53.570;10.032;2022-08-01T13:10:06;5.63;;;1.40;;
40449;SDS011;41787;53.570;10.032;2022-08-01T13:12:32;11.85;;;1.80;;
40449;SDS011;41787;53.570;10.032;2022-08-01T13:14:58;8.65;;;2.03;;
40449;SDS011;41787;53.570;10.032;2022-08-01T13:17:33;3.78;;;0.75;;
40449;SDS011;41787;53.570;10.032;2022-08-01T13:20:04;14.57;;;2.05;;
40449;SDS011;41787;53.570;10.032;2022-08-01T13:22:34;9.15;;;1.25;;
40449;SDS011;41787;53.570;10.032;2022-08-01T13:25:10;8.25;;;1.10;;
40449;SDS011;41787;53.570;10.032;2022-08-01T13:27:36;8.93;;;1.45;;
40449;SDS011;41787;53.570;10.032;2022-08-01T13:30:12;4.47;;;1.05;;
40449;SDS011;41787;53.570;10.032;2022-08-01T13:32:38;7.20;;;1.27;;
40449;SDS011;41787;53.570;10.032;2022-08-01T13:35:06;5.80;;;0.60;;
40449;SDS011;41787;53.570;10.032;2022-08-01T13:37:32;4.93;;;1.02;;
40449;SDS011;41787;53.570;10.032;2022-08-01T13:39:58;13.88;;;1.50;;
40449;SDS011;41787;53.570;10.032;2022-08-01T13:42:24;4.25;;;0.80;;
40449;SDS011;41787;53.570;10.032;2022-08-01T13:44:50;6.30;;;1.35;;
40449;SDS011;41787;53.570;10.032;2022-08-01T13:47:16;5.38;;;1.10;;
40449;SDS011;41787;53.570;10.032;2022-08-01T13:49:42;4.43;;;1.15;;
40449;SDS011;41787;53.570;10.032;2022-08-01T13:52:08;8.82;;;1.30;;
40449;SDS011;41787;53.570;10.032;2022-08-01T13:54:34;2.58;;;0.95;;
40449;SDS011;41787;53.570;10.032;2022-08-01T13:57:00;5.55;;;0.50;;
40449;SDS011;41787;53.570;10.032;2022-08-01T13:59:26;8.35;;;1.42;;
40449;SDS011;41787;53.570;10.032;2022-08-01T14:01:52;6.82;;;0.85;;
40449;SDS011;41787;53.570;10.032;2022-08-01T14:04:19;4.43;;;0.70;;
40449;SDS011;41787;53.570;10.032;2022-08-01T14:06:46;5.50;;;0.93;;
40449;SDS011;41787;53.570;10.032;2022-08-01T14:09:12;4.95;;;1.40;;
40449;SDS011;41787;53.570;10.032;2022-08-01T14:11:38;6.82;;;1.10;;
40449;SDS011;41787;53.570;10.032;2022-08-01T14:14:03;4.47;;;1.25;;
40449;SDS011;41787;53.570;10.032;2022-08-01T14:16:29;6.22;;;1.20;;
40449;SDS011;41787;53.570;10.032;2022-08-01T14:18:55;4.05;;;0.98;;
40449;SDS011;41787;53.570;10.032;2022-08-01T14:21:21;6.75;;;1.35;;
40449;SDS011;41787;53.570;10.032;2022-08-01T14:23:47;6.95;;;1.10;;
40449;SDS011;41787;53.570;10.032;2022-08-01T14:26:13;7.03;;;1.30;;
40449;SDS011;41787;53.570;10.032;2022-08-01T14:28:39;7.75;;;1.38;;
40449;SDS011;41787;53.570;10.032;2022-08-01T14:31:05;7.70;;;1.10;;
40449;SDS011;41787;53.570;10.032;2022-08-01T14:33:32;7.93;;;1.15;;
40449;SDS011;41787;53.570;10.032;2022-08-01T14:35:58;4.35;;;1.02;;
40449;SDS011;41787;53.570;10.032;2022-08-01T14:38:25;8.32;;;1.33;;
40449;SDS011;41787;53.570;10.032;2022-08-01T14:40:51;7.47;;;1.67;;
40449;SDS011;41787;53.570;10.032;2022-08-01T14:43:18;9.73;;;1.48;;
40449;SDS011;41787;53.570;10.032;2022-08-01T14:45:44;6.32;;;1.55;;
40449;SDS011;41787;53.570;10.032;2022-08-01T14:48:10;1.67;;;0.55;;
40449;SDS011;41787;53.570;10.032;2022-08-01T14:50:36;3.65;;;0.95;;
40449;SDS011;41787;53.570;10.032;2022-08-01T14:53:02;5.55;;;1.10;;
40449;SDS011;41787;53.570;10.032;2022-08-01T14:55:28;8.07;;;1.17;;